createdAt,value
2023-03-29T00:01:36.164Z,4.07
2023-03-29T00:04:39.059Z,4.88
2023-03-29T00:07:41.836Z,3.47
2023-03-29T00:10:43.801Z,2.87
2023-03-29T00:13:46.443Z,3.40
2023-03-29T00:16:48.905Z,2.38
2023-03-29T00:19:51.026Z,2.97
2023-03-29T00:22:52.933Z,4.80
2023-03-29T00:25:55.775Z,4.70
2023-03-29T00:28:57.637Z,2.47
2023-03-29T00:32:00.288Z,2.85
2023-03-29T00:35:02.395Z,2.58
2023-03-29T00:38:06.218Z,2.97
2023-03-29T00:41:09.197Z,2.47
2023-03-29T00:44:55.400Z,2.30
2023-03-29T00:48:03.012Z,4.05
2023-03-29T00:51:10.051Z,5.68
2023-03-29T00:54:18.748Z,5.73
2023-03-29T00:57:22.565Z,6.30
2023-03-29T01:00:31.820Z,5.60
2023-03-29T01:03:46.382Z,5.72
2023-03-29T01:07:06.412Z,5.10
2023-03-29T01:10:16.229Z,4.60
2023-03-29T01:13:27.295Z,5.50
2023-03-29T01:16:33.109Z,5.28
2023-03-29T01:19:42.310Z,5.85
2023-03-29T01:23:03.365Z,10.70
2023-03-29T01:26:23.020Z,22.30
2023-03-29T01:29:29.266Z,24.73
2023-03-29T01:32:42.228Z,17.05
2023-03-29T01:35:51.174Z,7.35
2023-03-29T01:38:57.081Z,6.60
2023-03-29T01:42:10.017Z,5.00
2023-03-29T01:45:27.015Z,4.43
2023-03-29T01:48:36.470Z,4.25
2023-03-29T01:51:48.325Z,3.72
2023-03-29T01:55:08.872Z,4.25
2023-03-29T01:58:13.454Z,4.60
2023-03-29T02:01:21.383Z,4.13
2023-03-29T02:04:30.559Z,3.92
2023-03-29T02:07:37.348Z,3.97
2023-03-29T02:10:39.866Z,4.00
2023-03-29T02:13:42.125Z,3.60
2023-03-29T02:16:46.349Z,4.13
2023-03-29T02:19:51.907Z,4.00
2023-03-29T02:23:08.910Z,4.18
2023-03-29T02:26:11.576Z,4.28
2023-03-29T02:29:14.134Z,4.93
2023-03-29T02:32:21.137Z,4.80
2023-03-29T02:35:53.342Z,4.25
2023-03-29T02:38:58.035Z,4.10
2023-03-29T02:42:03.049Z,4.55
2023-03-29T02:45:06.312Z,4.63
2023-03-29T02:48:12.551Z,130.17
2023-03-29T02:51:22.093Z,481.08
2023-03-29T02:54:29.969Z,394.27
2023-03-29T02:57:32.486Z,426.35
2023-03-29T03:00:38.344Z,499.77
2023-03-29T03:03:41.395Z,253.87
2023-03-29T03:06:43.463Z,442.55
2023-03-29T03:09:47.711Z,447.50
2023-03-29T03:12:49.978Z,502.73
2023-03-29T03:15:51.985Z,279.37
2023-03-29T03:18:55.763Z,150.97
2023-03-29T03:21:57.842Z,72.95
2023-03-29T03:24:59.753Z,67.68
2023-03-29T03:28:02.545Z,55.00
2023-03-29T03:31:05.426Z,45.90
2023-03-29T03:34:27.694Z,30.13
2023-03-29T03:37:34.947Z,23.13
2023-03-29T03:40:37.364Z,18.38
2023-03-29T03:43:42.438Z,11.77
2023-03-29T03:46:44.392Z,8.45
2023-03-29T03:49:46.635Z,7.30
2023-03-29T03:52:50.196Z,7.50
2023-03-29T03:55:55.945Z,7.65
2023-03-29T03:59:01.557Z,7.28
2023-03-29T04:02:08.125Z,7.90
2023-03-29T04:05:12.602Z,6.33
2023-03-29T04:08:15.137Z,7.13
2023-03-29T04:11:36.957Z,6.65
2023-03-29T04:14:40.427Z,7.95
2023-03-29T04:17:46.089Z,9.43
2023-03-29T04:20:59.636Z,18.07
2023-03-29T04:24:03.739Z,19.15
2023-03-29T04:27:08.815Z,21.95
2023-03-29T04:30:11.757Z,15.93
2023-03-29T04:33:35.158Z,19.15
2023-03-29T04:36:36.990Z,18.50
2023-03-29T04:39:42.439Z,18.73
2023-03-29T04:42:45.938Z,15.82
2023-03-29T04:45:48.046Z,16.05
2023-03-29T04:49:04.307Z,16.53
2023-03-29T04:52:10.457Z,20.63
2023-03-29T04:55:13.159Z,22.80
2023-03-29T04:58:31.632Z,14.18
2023-03-29T05:01:35.163Z,9.18
2023-03-29T05:04:37.237Z,7.30
2023-03-29T05:07:46.530Z,10.50
2023-03-29T05:10:50.859Z,11.65
2023-03-29T05:13:52.961Z,12.35
2023-03-29T05:16:56.259Z,13.32
2023-03-29T05:19:58.370Z,8.67
2023-03-29T05:23:01.492Z,9.30
2023-03-29T05:26:23.254Z,8.90
2023-03-29T05:29:28.434Z,6.82
2023-03-29T05:32:45.162Z,5.60
2023-03-29T05:35:58.164Z,5.60
2023-03-29T05:39:00.426Z,4.60
2023-03-29T05:42:04.599Z,4.60
2023-03-29T05:45:11.608Z,4.80
2023-03-29T05:48:15.067Z,4.88
2023-03-29T05:51:19.028Z,5.90
2023-03-29T05:54:21.089Z,5.23
2023-03-29T05:57:23.113Z,6.05
2023-03-29T06:00:25.805Z,5.68
2023-03-29T06:03:39.488Z,5.75
2023-03-29T06:06:42.078Z,5.40
2023-03-29T06:09:44.709Z,4.40
2023-03-29T06:12:47.731Z,6.40
2023-03-29T06:15:50.077Z,7.03
2023-03-29T06:18:54.232Z,3.80
2023-03-29T06:21:56.660Z,5.45
2023-03-29T06:25:02.566Z,5.37
2023-03-29T06:28:07.733Z,5.38
2023-03-29T06:31:11.041Z,5.85
2023-03-29T06:34:16.493Z,5.32
2023-03-29T06:37:35.570Z,5.30
2023-03-29T06:40:52.817Z,4.83
2023-03-29T06:43:58.358Z,5.20
2023-03-29T06:47:08.616Z,2.35
2023-03-29T06:50:11.757Z,2.10
2023-03-29T06:53:28.221Z,3.80
2023-03-29T06:56:35.202Z,3.30
2023-03-29T06:59:44.383Z,3.75
2023-03-29T07:02:54.955Z,3.10
2023-03-29T07:06:04.258Z,1.90
2023-03-29T07:09:09.014Z,2.95
2023-03-29T07:12:29.382Z,2.10
2023-03-29T07:15:36.114Z,2.20
2023-03-29T07:18:56.051Z,2.38
2023-03-29T07:42:58.964Z,2.20
2023-03-29T07:46:05.922Z,2.15
2023-03-29T07:49:10.433Z,1.90
2023-03-29T07:52:12.998Z,2.70
2023-03-29T07:55:18.806Z,2.53
2023-03-29T07:58:40.390Z,2.20
2023-03-29T08:01:42.961Z,2.10
2023-03-29T08:04:54.784Z,2.88
2023-03-29T08:08:17.232Z,2.20
2023-03-29T08:11:26.238Z,2.45
2023-03-29T08:14:33.449Z,1.95
2023-03-29T08:17:44.944Z,2.53
2023-03-29T08:20:47.432Z,2.88
2023-03-29T08:23:49.694Z,2.13
2023-03-29T08:26:59.102Z,3.20
2023-03-29T08:30:01.465Z,2.60
2023-03-29T08:33:03.917Z,3.17
2023-03-29T08:36:06.184Z,2.95
2023-03-29T08:39:12.325Z,2.50
2023-03-29T08:42:39.819Z,2.72
2023-03-29T08:45:44.849Z,2.70
2023-03-29T08:48:57.717Z,2.90
2023-03-29T08:52:05.282Z,2.83
2023-03-29T08:55:17.711Z,2.67
2023-03-29T08:58:40.562Z,2.45
2023-03-29T09:01:43.625Z,2.40
2023-03-29T09:04:48.495Z,2.50
2023-03-29T09:08:17.434Z,2.40
2023-03-29T09:11:44.833Z,2.97
2023-03-29T09:14:50.774Z,2.35
2023-03-29T09:18:14.085Z,3.40
2023-03-29T09:21:35.598Z,2.70
2023-03-29T09:25:05.973Z,2.80
2023-03-29T09:28:55.611Z,2.67
2023-03-29T09:31:59.186Z,3.00
2023-03-29T09:35:18.737Z,3.08
2023-03-29T09:38:23.000Z,2.08
2023-03-29T09:41:43.567Z,2.63
2023-03-29T09:44:53.584Z,2.53
2023-03-29T09:48:06.438Z,2.70
2023-03-29T09:51:11.445Z,2.40
2023-03-29T09:54:14.928Z,2.97
2023-03-29T09:57:46.225Z,3.20
2023-03-29T10:00:51.083Z,2.30
2023-03-29T10:03:54.080Z,3.60
2023-03-29T10:06:59.976Z,3.28
2023-03-29T10:10:02.029Z,2.92
2023-03-29T10:13:10.979Z,2.30
2023-03-29T10:16:25.875Z,3.10
2023-03-29T10:19:31.015Z,2.20
2023-03-29T10:22:37.640Z,2.78
2023-03-29T10:25:42.560Z,2.67
2023-03-29T10:28:45.423Z,3.10
2023-03-29T10:31:48.020Z,5.67
2023-03-29T10:34:52.056Z,4.70
2023-03-29T10:38:00.189Z,3.05
2023-03-29T10:41:12.920Z,2.90
2023-03-29T10:44:32.888Z,2.70
2023-03-29T10:47:35.442Z,1.70
2023-03-29T10:50:38.256Z,1.63
2023-03-29T10:53:41.126Z,2.50
2023-03-29T10:56:58.012Z,1.95
2023-03-29T11:00:23.671Z,2.10
2023-03-29T11:03:31.482Z,2.23
2023-03-29T11:06:57.352Z,2.53
2023-03-29T11:10:25.990Z,2.05
2023-03-29T11:13:37.452Z,2.13
2023-03-29T11:16:42.749Z,1.88
2023-03-29T11:20:05.205Z,1.90
2023-03-29T11:23:27.978Z,1.65
2023-03-29T11:26:33.085Z,1.50
2023-03-29T11:30:03.790Z,1.60
2023-03-29T11:33:16.650Z,2.20
2023-03-29T11:36:32.347Z,2.93
2023-03-29T11:39:48.038Z,2.22
2023-03-29T11:42:54.363Z,1.58
2023-03-29T11:46:02.501Z,1.52
2023-03-29T11:49:16.680Z,1.30
2023-03-29T11:52:25.678Z,1.40
2023-03-29T11:55:33.059Z,1.10
2023-03-29T11:58:40.952Z,1.52
2023-03-29T12:01:57.513Z,1.20
2023-03-29T12:05:07.530Z,2.00
2023-03-29T12:08:16.855Z,2.03
2023-03-29T12:11:19.044Z,2.63
2023-03-29T12:14:28.333Z,2.05
2023-03-29T12:17:39.399Z,2.05
2023-03-29T12:20:42.195Z,2.00
2023-03-29T12:23:48.099Z,1.57
2023-03-29T12:27:19.885Z,1.50
2023-03-29T12:30:27.816Z,2.10
2023-03-29T12:33:53.851Z,1.55
2023-03-29T12:37:38.771Z,2.00
2023-03-29T12:41:02.117Z,5.73
2023-03-29T12:44:28.054Z,1.90
2023-03-29T12:47:51.486Z,1.33
2023-03-29T12:51:01.792Z,1.90
2023-03-29T12:54:10.294Z,1.77
2023-03-29T12:57:25.624Z,2.83
2023-03-29T13:00:42.249Z,1.90
2023-03-29T13:03:50.419Z,2.15
2023-03-29T13:07:02.798Z,2.90
2023-03-29T13:10:31.452Z,2.60
2023-03-29T13:13:37.235Z,2.30
2023-03-29T13:16:41.670Z,2.13
2023-03-29T13:19:49.402Z,2.10
2023-03-29T13:23:02.375Z,1.70
2023-03-29T13:26:28.964Z,2.20
2023-03-29T13:29:55.876Z,1.67
2023-03-29T13:33:39.652Z,1.85
2023-03-29T13:36:58.607Z,1.70
2023-03-29T13:40:00.717Z,4.32
2023-03-29T13:43:19.162Z,2.50
2023-03-29T13:46:36.600Z,2.00
2023-03-29T13:49:42.429Z,2.03
2023-03-29T13:53:10.158Z,2.97
2023-03-29T13:56:19.714Z,1.60
2023-03-29T13:59:41.768Z,1.70
2023-03-29T14:02:49.546Z,4.43
2023-03-29T14:05:58.926Z,2.33
2023-03-29T14:09:06.392Z,1.90
2023-03-29T14:12:12.223Z,1.40
2023-03-29T14:15:36.399Z,1.52
2023-03-29T14:18:41.311Z,1.53
2023-03-29T14:21:44.370Z,1.60
2023-03-29T14:24:51.642Z,1.77
2023-03-29T14:27:53.638Z,1.70
2023-03-29T14:30:56.673Z,1.92
2023-03-29T14:34:04.614Z,2.40
2023-03-29T14:37:09.095Z,1.70
2023-03-29T14:40:21.212Z,2.17
2023-03-29T14:43:24.235Z,1.73
2023-03-29T14:46:27.399Z,2.00
2023-03-29T14:49:30.147Z,1.97
2023-03-29T14:52:33.505Z,1.75
2023-03-29T14:55:36.587Z,2.10
2023-03-29T14:58:40.183Z,1.90
2023-03-29T15:01:44.598Z,1.55
2023-03-29T15:04:55.692Z,1.60
2023-03-29T15:07:57.834Z,1.80
2023-03-29T15:11:00.169Z,2.30
2023-03-29T15:14:08.802Z,3.70
2023-03-29T15:17:50.921Z,2.75
2023-03-29T15:20:54.626Z,3.10
2023-03-29T15:23:58.550Z,5.90
2023-03-29T15:27:12.376Z,3.97
2023-03-29T15:30:17.578Z,4.70
2023-03-29T15:33:23.056Z,10.07
2023-03-29T15:36:25.049Z,11.80
2023-03-29T15:39:28.800Z,8.48
2023-03-29T15:42:31.525Z,7.60
2023-03-29T15:45:33.484Z,11.48
2023-03-29T15:48:35.363Z,8.57
2023-03-29T15:51:37.472Z,6.83
2023-03-29T15:54:39.458Z,4.20
2023-03-29T15:57:46.460Z,3.30
2023-03-29T16:00:53.859Z,3.83
2023-03-29T16:03:57.890Z,5.60
2023-03-29T16:07:01.340Z,5.43
2023-03-29T16:10:03.945Z,4.53
2023-03-29T16:13:06.465Z,3.47
2023-03-29T16:16:10.744Z,4.63
2023-03-29T16:19:13.042Z,7.30
2023-03-29T16:22:14.910Z,5.77
2023-03-29T16:25:19.297Z,4.25
2023-03-29T16:28:21.767Z,3.05
2023-03-29T16:31:25.882Z,2.70
2023-03-29T16:34:28.595Z,2.45
2023-03-29T16:37:30.446Z,2.80
2023-03-29T16:40:33.323Z,2.22
2023-03-29T16:43:38.576Z,2.78
2023-03-29T16:46:41.611Z,4.50
2023-03-29T16:49:45.316Z,2.67
2023-03-29T16:52:49.009Z,4.77
2023-03-29T16:55:51.005Z,4.20
2023-03-29T16:58:52.918Z,6.10
2023-03-29T17:01:54.937Z,5.85
2023-03-29T17:04:57.726Z,4.32
2023-03-29T17:07:59.655Z,3.70
2023-03-29T17:11:03.111Z,5.43
2023-03-29T17:14:05.133Z,4.10
2023-03-29T17:17:06.986Z,4.20
2023-03-29T17:20:12.360Z,4.20
2023-03-29T17:23:14.367Z,3.90
2023-03-29T17:26:16.227Z,3.72
2023-03-29T17:29:18.172Z,3.90
2023-03-29T17:32:20.497Z,4.03
2023-03-29T17:35:22.679Z,4.20
2023-03-29T17:38:26.759Z,3.63
2023-03-29T17:41:30.785Z,4.43
2023-03-29T17:44:34.780Z,10.40
2023-03-29T17:47:37.602Z,8.88
2023-03-29T17:50:39.863Z,8.15
2023-03-29T17:53:41.997Z,6.83
2023-03-29T17:56:43.977Z,5.30
2023-03-29T17:59:46.210Z,4.07
2023-03-29T18:02:48.425Z,4.05
2023-03-29T18:05:51.259Z,3.90
2023-03-29T18:08:53.530Z,3.67
2023-03-29T18:11:55.604Z,3.53
2023-03-29T18:14:57.800Z,2.90
2023-03-29T18:18:00.089Z,3.92
2023-03-29T18:21:02.348Z,3.30
2023-03-29T18:24:04.311Z,3.37
2023-03-29T18:27:06.649Z,4.50
2023-03-29T18:30:09.440Z,3.83
2023-03-29T18:33:11.864Z,4.57
2023-03-29T18:36:14.570Z,4.40
2023-03-29T18:39:16.911Z,5.03
2023-03-29T18:42:21.956Z,4.90
2023-03-29T18:45:24.093Z,4.22
2023-03-29T18:48:26.539Z,3.92
2023-03-29T18:51:29.345Z,4.50
2023-03-29T18:54:31.828Z,3.53
2023-03-29T18:57:34.200Z,4.10
2023-03-29T19:00:37.355Z,5.40
2023-03-29T19:03:40.103Z,4.05
2023-03-29T19:06:42.610Z,5.47
2023-03-29T19:09:45.316Z,5.57
2023-03-29T19:12:47.517Z,6.65
2023-03-29T19:15:51.833Z,6.32
2023-03-29T19:18:54.319Z,5.30
2023-03-29T19:21:58.336Z,4.93
2023-03-29T19:25:04.675Z,4.13
2023-03-29T19:28:06.997Z,4.20
2023-03-29T19:31:10.228Z,4.00
2023-03-29T19:34:13.507Z,4.45
2023-03-29T19:37:17.622Z,4.00
2023-03-29T19:40:20.154Z,4.67
2023-03-29T19:43:22.329Z,5.05
2023-03-29T19:46:24.685Z,4.72
2023-03-29T19:49:26.779Z,4.40
2023-03-29T19:52:30.487Z,4.70
2023-03-29T19:55:32.534Z,4.17
2023-03-29T19:58:35.004Z,4.20
2023-03-29T20:01:39.451Z,3.78
2023-03-29T20:04:41.651Z,4.65
2023-03-29T20:07:44.560Z,4.63
2023-03-29T20:10:46.435Z,5.80
2023-03-29T20:13:48.782Z,4.63
2023-03-29T20:16:51.107Z,4.50
2023-03-29T20:19:53.988Z,4.90
2023-03-29T20:23:04.640Z,8.70
2023-03-29T20:26:08.425Z,8.40
2023-03-29T20:29:10.347Z,9.15
2023-03-29T20:32:12.514Z,8.30
2023-03-29T20:35:14.567Z,5.97
2023-03-29T20:38:16.480Z,7.32
2023-03-29T20:41:21.265Z,7.20
2023-03-29T20:44:28.350Z,6.78
2023-03-29T20:47:30.341Z,7.10
2023-03-29T20:50:32.389Z,8.70
2023-03-29T20:53:34.293Z,7.00
2023-03-29T20:56:39.831Z,7.27
2023-03-29T20:59:45.766Z,6.93
2023-03-29T21:02:47.804Z,6.90
2023-03-29T21:05:54.240Z,6.40
2023-03-29T21:08:57.470Z,6.70
2023-03-29T21:11:59.832Z,5.97
2023-03-29T21:15:02.406Z,6.75
2023-03-29T21:18:04.658Z,6.00
2023-03-29T21:21:08.060Z,6.80
2023-03-29T21:24:13.136Z,6.38
2023-03-29T21:27:15.049Z,5.57
2023-03-29T21:30:17.123Z,6.10
2023-03-29T21:33:19.078Z,6.70
2023-03-29T21:36:20.992Z,7.05
2023-03-29T21:39:26.067Z,7.50
2023-03-29T21:42:28.382Z,6.67
2023-03-29T21:45:30.606Z,6.25
2023-03-29T21:48:32.862Z,6.88
2023-03-29T21:51:35.374Z,6.40
2023-03-29T21:54:37.236Z,6.60
2023-03-29T21:57:39.077Z,6.43
2023-03-29T22:00:41.632Z,6.28
2023-03-29T22:03:44.322Z,6.13
2023-03-29T22:06:46.369Z,6.00
2023-03-29T22:09:48.440Z,6.10
2023-03-29T22:12:51.421Z,6.27
2023-03-29T22:16:03.620Z,6.38
2023-03-29T22:19:06.419Z,5.72
2023-03-29T22:22:13.372Z,5.65
2023-03-29T22:25:17.572Z,7.65
2023-03-29T22:28:19.531Z,9.93
2023-03-29T22:31:23.529Z,12.25
2023-03-29T22:34:25.695Z,9.63
2023-03-29T22:37:27.519Z,8.02
2023-03-29T22:40:33.128Z,7.35
2023-03-29T22:43:36.486Z,6.60
2023-03-29T22:46:38.581Z,6.70
2023-03-29T22:49:40.586Z,7.00
2023-03-29T22:52:42.475Z,7.07
2023-03-29T22:55:45.862Z,7.30
2023-03-29T22:58:47.964Z,7.13
2023-03-29T23:01:50.075Z,7.70
2023-03-29T23:04:52.191Z,7.15
2023-03-29T23:07:55.759Z,6.93
2023-03-29T23:10:58.384Z,6.90
2023-03-29T23:14:03.991Z,7.47
2023-03-29T23:17:06.114Z,7.68
2023-03-29T23:20:11.047Z,7.75
2023-03-29T23:23:13.212Z,7.43
2023-03-29T23:26:15.892Z,8.02
2023-03-29T23:29:17.930Z,7.43
2023-03-29T23:32:20.528Z,7.72
2023-03-29T23:35:22.461Z,6.68
2023-03-29T23:38:24.658Z,7.35
2023-03-29T23:41:30.744Z,7.55
2023-03-29T23:44:32.740Z,8.47
2023-03-29T23:47:35.479Z,8.05
2023-03-29T23:50:37.487Z,7.72
2023-03-29T23:53:39.639Z,7.30
2023-03-29T23:56:41.542Z,7.65
2023-03-29T23:59:43.501Z,7.90
